Ashuelot, New Hampshire
Current Conditions -  °F | °C
As of 8:55 AM on Friday 24 Oct 2014 (Local Time) from KEEN Reporting Station
Overcast Overcast  
Wind Chill: 39°   Ceiling: 1600
Heat Index: 45°   Visibility: 10mi
Dew Point: 36°   Wind: 12mph
Humidity: 71%   Direction: 340°NNW
Pressure: 29.77"   Gusts: NA
Location:  42.78°N, 72.42°W
Report Text: KEEN 241255Z AUTO 34010KT 10SM OVC016 07/02 A2977 RMK AO1
Loading
Personal Weather Stations






























Interactive Weather Map New forecast layout! Learn more

10-Day Weather Forecast

Advertisements
Track Severe Weather on mobile